This is the latest recevied weather packets stored in our database for station/object IU1OPQ-3. If no packets are shown the sender has not sent any weather packets the latest 10 day(s).
| Time | Temp. | Humidity | Pressure | Rain* | Wind** | Luminosity | Snow |
|---|---|---|---|---|---|---|---|
| 1778068800 | 18.89° C | 62% | 1006.8 hPa | 0 mm | - | - | - |
| 1778067901 | 17.78° C | 69% | 1006.8 hPa | 0 mm | - | - | - |
| 1778067001 | 19.44° C | 62% | 1006.9 hPa | 0 mm | - | - | - |
| 1778066100 | 18.33° C | 64% | 1007.1 hPa | 0 mm | - | - | - |
| 1778065200 | 16.67° C | 64% | 1007.2 hPa | 0 mm | - | - | - |
| 1778064301 | 18.33° C | 66% | 1007.3 hPa | 0 mm | - | - | - |
| 1778063400 | 17.22° C | 71% | 1007.3 hPa | 0 mm | - | - | - |
| 1778062500 | 16.67° C | 74% | 1007.5 hPa | 0 mm | - | - | - |
| 1778061601 | 16.11° C | 78% | 1007.7 hPa | 0 mm | - | - | - |
| 1778060701 | 14.44° C | 80% | 1007.8 hPa | 0 mm | - | - | - |
| 1778059800 | 14.44° C | 84% | 1007.8 hPa | 0 mm | - | - | - |
| 1778058900 | 15° C | 82% | 1007.7 hPa | 0 mm | - | - | - |
| 1778058001 | 12.22° C | 93% | 1007.8 hPa | 0 mm | - | - | - |
| 1778057101 | 12.22° C | 94% | 1007.8 hPa | 0 mm | - | - | - |
| 1778056200 | 11.67° C | 97% | 1007.9 hPa | 0 mm | - | - | - |
| 1778055301 | 11.67° C | 96% | 1008 hPa | 0 mm | - | - | - |
| 1778054401 | 11.67° C | 95% | 1007.7 hPa | 0 mm | - | - | - |
| 1778053501 | 12.22° C | 93% | 1007.8 hPa | 0 mm | - | - | - |
| 1778052601 | 10.56° C | 98% | 1007.8 hPa | 0 mm | - | - | - |
| 1778051701 | 11.11° C | 97% | 1007.8 hPa | 0 mm | - | - | - |
| 1778050801 | 11.11° C | 98% | 1007.5 hPa | 0 mm | - | - | - |
| 1778049901 | 11.11° C | 99% | 1007.6 hPa | 0 mm | - | - | - |
| 1778049001 | 11.11° C | 99% | 1007.8 hPa | 0 mm | - | - | - |
| 1778048100 | 10.56° C | 99% | 1007.9 hPa | 0 mm | - | - | - |
| 1778047204 | 11.67° C | 99% | 1007.7 hPa | 0 mm | - | - | - |
* Rain latest hour (hover to see other rain measurements)
** Current wind speed in m/s (hover to see current wind gust speed)